Time,TemperatureF,DewpointF,PressureIn,WindDirection,WindDirectionDegrees,WindSpeedMPH,WindSpeedGustMPH,Humidity,HourlyPrecipIn,Conditions,Clouds,dailyrainin,SoftwareType,DateUTC
2013-01-20 00:00:00,33.4,28.0,30.20,East,100,0.0,-999.0,80,-99.99,,,0.00,weatherlink.com 1.10,2013-01-20 08:00:00,
2013-01-20 00:15:00,33.2,28.0,30.20,East,100,0.0,-999.0,81,-99.99,,,0.00,weatherlink.com 1.10,2013-01-20 08:15:00,
2013-01-20 00:30:00,33.1,28.0,30.20,East,100,0.0,-999.0,81,-99.99,,,0.00,weatherlink.com 1.10,2013-01-20 08:30:00,
2013-01-20 00:45:00,32.9,28.0,30.20,East,100,0.0,-999.0,81,-99.99,,,0.00,weatherlink.com 1.10,2013-01-20 08:45:00,
2013-01-20 01:00:00,32.8,28.0,30.20,East,100,0.0,-999.0,81,-99.99,,,0.00,weatherlink.com 1.10,2013-01-20 09:00:00,
2013-01-20 01:15:00,32.7,28.0,30.20,East,100,0.0,-999.0,81,-99.99,,,0.00,weatherlink.com 1.10,2013-01-20 09:15:00,
2013-01-20 01:30:00,32.2,27.0,30.20,East,100,0.0,-999.0,81,-99.99,,,0.00,weatherlink.com 1.10,2013-01-20 09:30:00,
2013-01-20 01:45:00,31.8,27.0,30.20,East,100,0.0,-999.0,82,-99.99,,,0.00,weatherlink.com 1.10,2013-01-20 09:45:00,
2013-01-20 02:00:00,31.5,27.0,30.20,East,100,0.0,-999.0,82,-99.99,,,0.00,weatherlink.com 1.10,2013-01-20 10:00:00,
2013-01-20 02:15:00,31.3,27.0,30.20,East,100,0.0,-999.0,83,-99.99,,,0.00,weatherlink.com 1.10,2013-01-20 10:15:00,
2013-01-20 02:30:00,31.2,27.0,30.20,East,100,1.0,-999.0,83,-99.99,,,0.00,weatherlink.com 1.10,2013-01-20 10:30:00,
2013-01-20 02:45:00,31.2,27.0,30.21,East,100,0.0,-999.0,84,-99.99,,,0.00,weatherlink.com 1.10,2013-01-20 10:45:00,
2013-01-20 03:00:00,31.2,27.0,30.21,East,100,2.0,-999.0,84,-99.99,,,0.00,weatherlink.com 1.10,2013-01-20 11:00:00,
2013-01-20 03:15:00,31.3,27.0,30.20,East,100,2.0,-999.0,84,-99.99,,,0.00,weatherlink.com 1.10,2013-01-20 11:15:00,
2013-01-20 03:30:00,31.3,27.0,30.20,East,100,0.0,-999.0,84,-99.99,,,0.00,weatherlink.com 1.10,2013-01-20 11:30:00,
2013-01-20 03:45:00,31.2,27.0,30.20,East,99,0.0,-999.0,83,-99.99,,,0.00,weatherlink.com 1.10,2013-01-20 11:45:00,
2013-01-20 04:00:00,30.9,26.0,30.20,East,99,0.0,-999.0,83,-99.99,,,0.00,weatherlink.com 1.10,2013-01-20 12:00:00,
2013-01-20 04:15:00,30.7,26.0,30.20,East,99,0.0,-999.0,84,-99.99,,,0.00,weatherlink.com 1.10,2013-01-20 12:15:00,
2013-01-20 04:30:00,30.4,26.0,30.20,East,99,0.0,-999.0,84,-99.99,,,0.00,weatherlink.com 1.10,2013-01-20 12:30:00,
2013-01-20 04:45:00,30.1,26.0,30.20,East,99,0.0,-999.0,84,-99.99,,,0.00,weatherlink.com 1.10,2013-01-20 12:45:00,
2013-01-20 05:00:00,30.0,26.0,30.20,East,99,0.0,-999.0,85,-99.99,,,0.00,weatherlink.com 1.10,2013-01-20 13:00:00,
2013-01-20 05:15:00,29.7,26.0,30.20,East,99,0.0,-999.0,85,-99.99,,,0.00,weatherlink.com 1.10,2013-01-20 13:15:00,
2013-01-20 05:30:00,29.5,26.0,30.20,East,99,0.0,-999.0,85,-99.99,,,0.00,weatherlink.com 1.10,2013-01-20 13:30:00,
2013-01-20 05:45:00,29.4,26.0,30.20,East,99,0.0,-999.0,86,-99.99,,,0.00,weatherlink.com 1.10,2013-01-20 13:45:00,
2013-01-20 06:00:00,29.4,26.0,30.19,East,99,0.0,-999.0,86,-99.99,,,0.00,weatherlink.com 1.10,2013-01-20 14:00:00,
2013-01-20 06:15:00,29.3,26.0,30.19,East,99,0.0,-999.0,87,-99.99,,,0.00,weatherlink.com 1.10,2013-01-20 14:15:00,
2013-01-20 06:30:00,29.3,26.0,30.19,East,99,0.0,-999.0,87,-99.99,,,0.00,weatherlink.com 1.10,2013-01-20 14:30:00,
2013-01-20 06:45:00,29.4,26.0,30.19,East,99,0.0,-999.0,87,-99.99,,,0.00,weatherlink.com 1.10,2013-01-20 14:45:00,
2013-01-20 07:00:00,29.3,26.0,30.19,East,99,0.0,-999.0,87,-99.99,,,0.00,weatherlink.com 1.10,2013-01-20 15:00:00,
2013-01-20 07:15:00,29.0,26.0,30.19,East,99,0.0,-999.0,87,-99.99,,,0.00,weatherlink.com 1.10,2013-01-20 15:15:00,
2013-01-20 07:30:00,29.0,26.0,30.19,East,99,0.0,-999.0,87,-99.99,,,0.00,weatherlink.com 1.10,2013-01-20 15:30:00,
2013-01-20 07:45:00,29.0,26.0,30.19,East,99,0.0,-999.0,88,-99.99,,,0.00,weatherlink.com 1.10,2013-01-20 15:45:00,
2013-01-20 08:00:00,29.5,26.0,30.20,East,99,0.0,-999.0,88,-99.99,,,0.00,weatherlink.com 1.10,2013-01-20 16:00:00,
2013-01-20 08:15:00,30.7,28.0,30.20,East,99,0.0,-999.0,89,-99.99,,,0.00,weatherlink.com 1.10,2013-01-20 16:15:00,
2013-01-20 08:30:00,32.4,30.0,30.21,East,99,0.0,-999.0,89,-99.99,,,0.00,weatherlink.com 1.10,2013-01-20 16:30:00,
2013-01-20 08:45:00,34.3,31.0,30.20,East,99,0.0,-999.0,89,-99.99,,,0.00,weatherlink.com 1.10,2013-01-20 16:45:00,
2013-01-20 09:01:00,36.9,34.0,30.20,East,99,0.0,-999.0,88,-99.99,,,0.00,weatherlink.com 1.10,2013-01-20 17:01:00,
2013-01-20 09:16:00,40.2,35.0,30.20,East,99,0.0,-999.0,82,-99.99,,,0.00,weatherlink.com 1.10,2013-01-20 17:16:00,
2013-01-20 09:31:00,43.8,35.0,30.20,East,99,0.0,-999.0,71,-99.99,,,0.00,weatherlink.com 1.10,2013-01-20 17:31:00,
2013-01-20 09:46:00,47.1,35.0,30.20,East,99,0.0,-999.0,62,-99.99,,,0.00,weatherlink.com 1.10,2013-01-20 17:46:00,
2013-01-20 10:01:00,51.1,34.0,30.20,East,99,0.0,-999.0,53,-99.99,,,0.00,weatherlink.com 1.10,2013-01-20 18:01:00,
2013-01-20 10:16:00,54.5,33.0,30.20,East,99,0.0,-999.0,45,-99.99,,,0.00,weatherlink.com 1.10,2013-01-20 18:16:00,
2013-01-20 10:31:00,57.2,32.0,30.20,East,100,0.0,-999.0,39,-99.99,,,0.00,weatherlink.com 1.10,2013-01-20 18:31:00,
2013-01-20 10:46:00,59.8,29.0,30.19,East,101,0.0,-999.0,31,-99.99,,,0.00,weatherlink.com 1.10,2013-01-20 18:46:00,
2013-01-20 11:01:00,62.0,26.0,30.18,SSE,160,0.0,-999.0,25,-99.99,,,0.00,weatherlink.com 1.10,2013-01-20 19:01:00,
2013-01-20 11:16:00,63.7,25.0,30.18,SSE,159,0.0,-999.0,23,-99.99,,,0.00,weatherlink.com 1.10,2013-01-20 19:16:00,
2013-01-20 11:31:00,65.3,25.0,30.17,South,169,1.0,-999.0,22,-99.99,,,0.00,weatherlink.com 1.10,2013-01-20 19:31:00,
2013-01-20 11:46:00,66.3,23.0,30.17,SSE,150,3.0,-999.0,19,-99.99,,,0.00,weatherlink.com 1.10,2013-01-20 19:46:00,
2013-01-20 12:01:00,66.8,22.0,30.15,SSE,153,0.0,-999.0,18,-99.99,,,0.00,weatherlink.com 1.10,2013-01-20 20:01:00,
2013-01-20 12:16:00,67.3,22.0,30.15,SSE,162,0.0,-999.0,18,-99.99,,,0.00,weatherlink.com 1.10,2013-01-20 20:16:00,
2013-01-20 12:31:00,68.1,23.0,30.14,SSW,212,0.0,-999.0,18,-99.99,,,0.00,weatherlink.com 1.10,2013-01-20 20:31:00,
2013-01-20 12:46:00,68.8,22.0,30.13,SW,234,4.0,-999.0,17,-99.99,,,0.00,weatherlink.com 1.10,2013-01-20 20:46:00,
2013-01-20 13:02:00,69.1,24.0,30.12,SE,134,5.0,-999.0,18,-99.99,,,0.00,weatherlink.com 1.10,2013-01-20 21:02:00,
2013-01-20 13:17:00,69.1,25.0,30.12,ESE,121,4.0,-999.0,19,-99.99,,,0.00,weatherlink.com 1.10,2013-01-20 21:17:00,
2013-01-20 13:32:00,69.4,25.0,30.11,SE,134,2.0,-999.0,19,-99.99,,,0.00,weatherlink.com 1.10,2013-01-20 21:32:00,
2013-01-20 13:47:00,69.4,24.0,30.11,SE,137,6.0,-999.0,18,-99.99,,,0.00,weatherlink.com 1.10,2013-01-20 21:47:00,
2013-01-20 14:02:00,69.4,24.0,30.10,SE,146,4.0,-999.0,18,-99.99,,,0.00,weatherlink.com 1.10,2013-01-20 22:02:00,
2013-01-20 14:32:00,69.4,27.0,30.09,SE,128,2.0,-999.0,20,-99.99,,,0.00,weatherlink.com 1.10,2013-01-20 22:32:00,
2013-01-20 14:47:00,69.6,23.0,30.09,SE,132,1.0,-999.0,17,-99.99,,,0.00,weatherlink.com 1.10,2013-01-20 22:47:00,
2013-01-20 15:02:00,69.8,21.0,30.09,SSE,148,0.0,-999.0,16,-99.99,,,0.00,weatherlink.com 1.10,2013-01-20 23:02:00,
2013-01-20 15:17:00,69.8,23.0,30.09,SSE,150,3.0,-999.0,17,-99.99,,,0.00,weatherlink.com 1.10,2013-01-20 23:17:00,
2013-01-20 15:32:00,69.8,26.0,30.09,SE,138,0.0,-999.0,19,-99.99,,,0.00,weatherlink.com 1.10,2013-01-20 23:32:00,
2013-01-20 15:47:00,69.8,28.0,30.10,SW,215,0.0,-999.0,21,-99.99,,,0.00,weatherlink.com 1.10,2013-01-20 23:47:00,
2013-01-20 16:02:00,69.1,33.0,30.10,SW,215,0.0,-999.0,26,-99.99,,,0.00,weatherlink.com 1.10,2013-01-21 00:02:00,
2013-01-20 16:17:00,67.1,31.0,30.11,SSW,193,2.0,-999.0,26,-99.99,,,0.00,weatherlink.com 1.10,2013-01-21 00:17:00,
2013-01-20 16:32:00,64.3,29.0,30.11,West,277,2.0,-999.0,27,-99.99,,,0.00,weatherlink.com 1.10,2013-01-21 00:32:00,
2013-01-20 16:47:00,61.5,35.0,30.11,West,277,0.0,-999.0,37,-99.99,,,0.00,weatherlink.com 1.10,2013-01-21 00:47:00,
2013-01-20 17:02:00,57.2,36.0,30.12,West,277,2.0,-999.0,45,-99.99,,,0.00,weatherlink.com 1.10,2013-01-21 01:02:00,
2013-01-20 17:17:00,53.5,35.0,30.12,West,277,2.0,-999.0,49,-99.99,,,0.00,weatherlink.com 1.10,2013-01-21 01:17:00,
2013-01-20 17:32:00,51.3,34.0,30.12,West,277,1.0,-999.0,52,-99.99,,,0.00,weatherlink.com 1.10,2013-01-21 01:32:00,
2013-01-20 18:02:00,48.2,34.0,30.12,West,277,0.0,-999.0,59,-99.99,,,0.00,weatherlink.com 1.10,2013-01-21 02:02:00,
2013-01-20 18:17:00,46.4,35.0,30.13,West,277,0.0,-999.0,64,-99.99,,,0.00,weatherlink.com 1.10,2013-01-21 02:17:00,
2013-01-20 18:32:00,45.7,34.0,30.13,West,277,0.0,-999.0,65,-99.99,,,0.00,weatherlink.com 1.10,2013-01-21 02:32:00,
2013-01-20 18:47:00,45.1,35.0,30.14,West,277,0.0,-999.0,67,-99.99,,,0.00,weatherlink.com 1.10,2013-01-21 02:47:00,
2013-01-20 19:02:00,44.3,34.0,30.14,West,277,0.0,-999.0,67,-99.99,,,0.00,weatherlink.com 1.10,2013-01-21 03:02:00,
2013-01-20 19:17:00,43.5,34.0,30.14,West,277,0.0,-999.0,69,-99.99,,,0.00,weatherlink.com 1.10,2013-01-21 03:17:00,
2013-01-20 19:32:00,42.3,34.0,30.15,West,277,0.0,-999.0,71,-99.99,,,0.00,weatherlink.com 1.10,2013-01-21 03:32:00,
2013-01-20 19:47:00,41.2,33.0,30.15,West,277,0.0,-999.0,73,-99.99,,,0.00,weatherlink.com 1.10,2013-01-21 03:47:00,
2013-01-20 20:17:00,39.5,33.0,30.16,West,277,0.0,-999.0,77,-99.99,,,0.00,weatherlink.com 1.10,2013-01-21 04:17:00,
2013-01-20 20:32:00,38.8,33.0,30.16,West,277,0.0,-999.0,78,-99.99,,,0.00,weatherlink.com 1.10,2013-01-21 04:32:00,
2013-01-20 20:47:00,38.0,32.0,30.16,West,277,0.0,-999.0,80,-99.99,,,0.00,weatherlink.com 1.10,2013-01-21 04:47:00,
2013-01-20 21:17:00,37.0,32.0,30.16,West,277,0.0,-999.0,81,-99.99,,,0.00,weatherlink.com 1.10,2013-01-21 05:17:00,
2013-01-20 21:32:00,36.2,31.0,30.16,West,277,0.0,-999.0,82,-99.99,,,0.00,weatherlink.com 1.10,2013-01-21 05:32:00,
2013-01-20 21:47:00,35.8,31.0,30.16,West,277,0.0,-999.0,83,-99.99,,,0.00,weatherlink.com 1.10,2013-01-21 05:47:00,
2013-01-20 22:02:00,35.5,31.0,30.17,West,277,0.0,-999.0,84,-99.99,,,0.00,weatherlink.com 1.10,2013-01-21 06:02:00,
2013-01-20 22:17:00,35.3,31.0,30.16,West,277,0.0,-999.0,84,-99.99,,,0.00,weatherlink.com 1.10,2013-01-21 06:17:00,
2013-01-20 22:32:00,34.9,31.0,30.16,West,277,0.0,-999.0,84,-99.99,,,0.00,weatherlink.com 1.10,2013-01-21 06:32:00,
2013-01-20 22:47:00,34.4,30.0,30.16,West,278,0.0,-999.0,84,-99.99,,,0.00,weatherlink.com 1.10,2013-01-21 06:47:00,
2013-01-20 23:02:00,33.8,30.0,30.16,West,278,0.0,-999.0,84,-99.99,,,0.00,weatherlink.com 1.10,2013-01-21 07:02:00,
2013-01-20 23:17:00,33.5,30.0,30.16,West,278,0.0,-999.0,85,-99.99,,,0.00,weatherlink.com 1.10,2013-01-21 07:17:00,
2013-01-20 23:33:00,33.2,30.0,30.16,West,278,0.0,-999.0,86,-99.99,,,0.00,weatherlink.com 1.10,2013-01-21 07:33:00,
2013-01-20 23:47:00,32.9,29.0,30.15,West,278,0.0,-999.0,86,-99.99,,,0.00,weatherlink.com 1.10,2013-01-21 07:47:00,